Time;durP1;ratioP1;P1;durP2;ratioP2;P2;SDS_P1;SDS_P2;PMS_P1;PMS_P2;Temp;Humidity;BMP_temperature;BMP_pressure;BME280_temperature;BME280_humidity;BME280_pressure;Samples;Min_cycle;Max_cycle;Signal;HPM_P1;HPM_P2
2022/10/23 00:00:29;;;;;;;82.00;51.95;;;11.00;99.90;;;;;;4958390;28;20042;-75
2022/10/23 00:02:55;;;;;;;89.05;49.70;;;11.00;99.90;;;;;;4956958;28;20117;-75
2022/10/23 00:05:22;;;;;;;52.80;38.53;;;11.00;99.90;;;;;;4968819;28;20046;-75
2022/10/23 00:07:52;;;;;;;55.92;37.53;;;11.00;99.90;;;;;;4974420;28;20104;-75
2022/10/23 00:10:19;;;;;;;56.58;38.78;;;10.90;99.90;;;;;;4967015;28;20447;-74
2022/10/23 00:12:46;;;;;;;51.65;35.83;;;10.80;99.90;;;;;;4974422;28;20065;-75
2022/10/23 00:15:12;;;;;;;60.22;37.90;;;10.90;99.90;;;;;;4942337;28;20513;-75
2022/10/23 00:17:38;;;;;;;52.83;37.33;;;11.00;99.90;;;;;;4957924;28;20043;-75
2022/10/23 00:20:06;;;;;;;63.13;39.25;;;11.00;99.90;;;;;;4956520;28;20046;-75
2022/10/23 00:22:32;;;;;;;44.88;31.80;;;11.00;99.90;;;;;;4969473;28;20046;-75
2022/10/23 00:24:58;;;;;;;66.82;40.53;;;10.90;99.90;;;;;;4968892;28;20039;-75
2022/10/23 00:27:24;;;;;;;50.50;33.75;;;11.00;99.90;;;;;;4954571;28;20035;-75
2022/10/23 00:29:49;;;;;;;40.55;30.38;;;10.90;99.90;;;;;;4970863;28;20493;-75
2022/10/23 00:32:15;;;;;;;46.22;31.38;;;10.90;99.90;;;;;;4965468;28;20049;-75
2022/10/23 00:34:41;;;;;;;42.35;29.67;;;10.90;99.90;;;;;;4946756;28;20035;-75
2022/10/23 00:37:07;;;;;;;37.33;27.95;;;10.90;99.90;;;;;;4963183;28;20380;-75
2022/10/23 00:39:32;;;;;;;49.08;31.00;;;11.00;99.90;;;;;;4965007;28;20047;-75
2022/10/23 00:41:58;;;;;;;44.03;30.85;;;11.00;99.90;;;;;;4953619;28;20050;-75
2022/10/23 00:44:24;;;;;;;32.22;23.35;;;11.00;99.90;;;;;;4963869;28;20109;-75
2022/10/23 00:46:50;;;;;;;40.33;27.20;;;11.00;99.90;;;;;;4986695;28;20050;-75
2022/10/23 00:49:16;;;;;;;35.03;25.98;;;10.90;99.90;;;;;;4956515;28;20046;-75
2022/10/23 00:51:50;;;;;;;37.58;25.48;;;10.90;99.90;;;;;;4970689;28;20043;-75
2022/10/23 00:54:18;;;;;;;36.00;25.60;;;10.90;99.90;;;;;;4961115;28;20069;-75
2022/10/23 00:56:45;;;;;;;38.38;25.30;;;10.90;99.90;;;;;;4957501;28;20510;-75
2022/10/23 00:59:11;;;;;;;35.55;25.33;;;11.00;99.90;;;;;;4960133;28;20480;-74
2022/10/23 01:01:37;;;;;;;35.80;24.95;;;11.00;99.90;;;;;;4965064;28;20508;-75
2022/10/23 01:04:06;;;;;;;55.13;32.50;;;11.00;99.90;;;;;;4941659;28;20051;-75
2022/10/23 01:06:39;;;;;;;29.77;21.60;;;11.00;99.90;;;;;;4963801;28;20650;-75
2022/10/23 01:09:25;;;;;;;31.70;24.05;;;11.00;99.90;;;;;;4957111;28;20402;-75
2022/10/23 01:12:23;;;;;;;33.92;25.02;;;11.00;99.90;;;;;;4948924;28;20134;-75
2022/10/23 01:15:07;;;;;;;33.50;24.38;;;11.00;99.90;;;;;;4955208;28;20051;-74
2022/10/23 01:17:47;;;;;;;62.22;33.88;;;11.00;99.90;;;;;;4956221;28;20043;-75
2022/10/23 01:20:31;;;;;;;39.40;27.85;;;11.00;99.90;;;;;;4937192;29;20046;-75
2022/10/23 01:23:07;;;;;;;35.17;24.35;;;11.00;99.90;;;;;;4958950;28;20039;-75
2022/10/23 01:25:42;;;;;;;36.25;24.45;;;10.90;99.90;;;;;;4957077;28;20490;-75
2022/10/23 01:28:13;;;;;;;32.15;24.70;;;11.00;99.90;;;;;;4940748;28;20069;-75
2022/10/23 01:30:43;;;;;;;41.13;26.83;;;10.90;99.90;;;;;;4956643;28;20485;-75
2022/10/23 01:33:22;;;;;;;50.13;31.60;;;11.00;99.90;;;;;;4942805;28;20062;-75
2022/10/23 01:35:52;;;;;;;34.55;23.73;;;10.90;99.90;;;;;;4956125;28;20046;-76
2022/10/23 01:38:36;;;;;;;58.10;33.22;;;10.90;99.90;;;;;;4956112;28;20042;-75
2022/10/23 01:41:15;;;;;;;33.85;24.20;;;10.90;99.90;;;;;;4956667;28;20494;-75
2022/10/23 01:43:58;;;;;;;36.55;24.73;;;10.80;99.90;;;;;;4956004;28;20035;-75
2022/10/23 01:46:26;;;;;;;34.95;24.33;;;10.80;99.90;;;;;;4956260;28;20573;-74
2022/10/23 01:48:54;;;;;;;29.98;22.85;;;10.80;99.90;;;;;;4955681;28;20050;-75
2022/10/23 01:51:23;;;;;;;30.63;23.10;;;10.70;99.90;;;;;;4955843;28;20039;-75
2022/10/23 01:53:54;;;;;;;27.05;21.17;;;10.80;99.90;;;;;;4956225;28;20035;-75
2022/10/23 01:56:29;;;;;;;24.90;20.10;;;10.80;99.90;;;;;;4955920;28;20046;-75
2022/10/23 01:58:57;;;;;;;39.10;24.10;;;10.70;99.90;;;;;;4956142;28;20035;-74
2022/10/23 02:01:27;;;;;;;34.28;23.92;;;10.60;99.90;;;;;;4937042;29;20170;-75
2022/10/23 02:03:54;;;;;;;35.92;24.30;;;10.60;99.90;;;;;;4955544;28;20122;-74
2022/10/23 02:06:20;;;;;;;39.90;24.83;;;10.60;99.90;;;;;;4942368;28;20039;-75
2022/10/23 02:08:46;;;;;;;24.40;18.05;;;10.60;99.90;;;;;;4929864;29;20074;-75
2022/10/23 02:11:19;;;;;;;19.95;16.73;;;10.50;99.90;;;;;;4968892;28;20229;-75
2022/10/23 02:14:04;;;;;;;31.42;22.27;;;10.50;99.90;;;;;;4954259;28;20047;-75
2022/10/23 02:16:46;;;;;;;24.63;17.90;;;10.50;99.90;;;;;;4955792;28;20109;-74
2022/10/23 02:19:29;;;;;;;59.97;30.65;;;10.40;99.90;;;;;;4955195;28;20402;-75
2022/10/23 02:22:24;;;;;;;23.30;18.77;;;10.40;99.90;;;;;;4949400;28;20097;-75
2022/10/23 02:24:57;;;;;;;26.40;19.75;;;10.40;99.90;;;;;;4953612;28;20047;-75
2022/10/23 02:27:39;;;;;;;25.65;19.63;;;10.40;99.90;;;;;;4956120;28;20512;-75
2022/10/23 02:30:10;;;;;;;20.35;14.68;;;10.40;99.90;;;;;;4956118;28;20545;-75
2022/10/23 02:32:40;;;;;;;19.80;14.90;;;10.30;99.90;;;;;;4964938;28;20042;-75
2022/10/23 02:35:06;;;;;;;24.40;18.25;;;10.30;99.90;;;;;;4957460;28;20054;-75
2022/10/23 02:37:32;;;;;;;68.78;31.55;;;10.30;99.90;;;;;;4959992;28;20513;-75
2022/10/23 02:39:58;;;;;;;22.45;17.63;;;10.30;99.90;;;;;;4959373;28;20170;-75
2022/10/23 02:42:49;;;;;;;24.40;18.50;;;10.20;99.90;;;;;;4959272;28;20125;-75
2022/10/23 02:45:56;;;;;;;18.97;14.97;;;10.20;99.90;;;;;;4959417;28;20054;-75
2022/10/23 02:48:31;;;;;;;17.48;12.75;;;10.20;99.90;;;;;;4868485;29;20060;-74
2022/10/23 02:51:37;;;;;;;19.65;15.63;;;10.20;99.90;;;;;;4864143;29;20057;-75
2022/10/23 02:54:22;;;;;;;17.42;12.85;;;10.20;99.90;;;;;;4942725;28;20113;-75
2022/10/23 02:56:59;;;;;;;29.23;20.48;;;10.10;99.90;;;;;;4959667;28;20049;-75
2022/10/23 02:59:42;;;;;;;18.15;13.75;;;10.10;99.90;;;;;;4946200;28;20066;-75
2022/10/23 03:02:20;;;;;;;27.00;19.42;;;10.10;99.90;;;;;;4958951;28;20054;-75
2022/10/23 03:04:46;;;;;;;20.27;14.73;;;10.10;99.90;;;;;;4958937;28;20561;-74
2022/10/23 03:07:13;;;;;;;23.67;17.80;;;10.10;99.90;;;;;;4959008;28;20045;-75
2022/10/23 03:09:39;;;;;;;33.85;21.42;;;10.10;99.90;;;;;;4959212;28;20125;-74
2022/10/23 03:12:05;;;;;;;32.20;23.05;;;10.10;99.90;;;;;;4971511;28;20092;-74
2022/10/23 03:14:31;;;;;;;20.65;16.80;;;10.10;99.90;;;;;;4955399;28;20046;-74
2022/10/23 03:16:56;;;;;;;29.27;21.05;;;10.10;99.90;;;;;;4940012;29;20051;-74
2022/10/23 03:19:22;;;;;;;29.58;20.08;;;10.10;99.90;;;;;;4970840;28;20053;-75
2022/10/23 03:21:48;;;;;;;24.20;18.65;;;10.10;99.90;;;;;;4943110;28;20038;-74
2022/10/23 03:24:13;;;;;;;20.20;15.88;;;10.10;99.90;;;;;;4958946;28;20505;-75
2022/10/23 03:26:39;;;;;;;20.60;15.15;;;10.00;99.90;;;;;;4959195;28;20034;-75
2022/10/23 03:29:05;;;;;;;19.75;15.38;;;10.00;99.90;;;;;;4958769;28;20043;-74
2022/10/23 03:31:30;;;;;;;19.27;13.80;;;10.10;99.90;;;;;;4939132;29;20039;-74
2022/10/23 03:33:56;;;;;;;18.80;14.63;;;10.00;99.90;;;;;;4958167;28;20053;-75
2022/10/23 03:36:22;;;;;;;20.13;14.93;;;10.00;99.90;;;;;;4960256;28;20133;-75
2022/10/23 03:38:47;;;;;;;24.10;18.23;;;10.00;99.90;;;;;;4961406;28;20037;-74
2022/10/23 03:41:13;;;;;;;19.80;15.95;;;10.00;99.90;;;;;;4958661;28;20043;-75
2022/10/23 03:43:39;;;;;;;20.33;16.48;;;10.00;99.90;;;;;;4957948;28;20035;-75
2022/10/23 03:46:08;;;;;;;21.20;17.70;;;10.00;99.90;;;;;;4974665;28;20126;-75
2022/10/23 03:48:36;;;;;;;24.25;17.90;;;10.00;99.90;;;;;;4974972;28;20050;-75
2022/10/23 03:51:03;;;;;;;17.95;13.63;;;10.00;99.90;;;;;;4977587;28;20042;-74
2022/10/23 03:53:29;;;;;;;18.25;14.13;;;10.00;99.90;;;;;;4945230;28;20053;-75
2022/10/23 03:55:55;;;;;;;27.13;18.65;;;10.00;99.90;;;;;;4958605;28;20490;-74
2022/10/23 03:58:20;;;;;;;24.30;18.00;;;10.10;99.90;;;;;;4957458;28;20031;-75
2022/10/23 04:00:46;;;;;;;24.80;17.08;;;10.10;99.90;;;;;;4957981;28;20047;-75
2022/10/23 04:03:12;;;;;;;25.83;18.38;;;10.10;99.90;;;;;;4957508;28;20121;-75
2022/10/23 04:05:39;;;;;;;25.65;18.92;;;10.10;99.90;;;;;;4958143;28;20038;-74
2022/10/23 04:08:05;;;;;;;26.08;19.20;;;10.00;99.90;;;;;;4957722;28;20116;-74
2022/10/23 04:10:30;;;;;;;31.88;21.02;;;10.00;99.90;;;;;;4942302;28;20140;-75
2022/10/23 04:12:56;;;;;;;25.35;18.17;;;10.00;99.90;;;;;;4958257;28;20113;-75
2022/10/23 04:15:22;;;;;;;25.75;18.75;;;10.00;99.90;;;;;;4958319;28;20097;-75
2022/10/23 04:17:47;;;;;;;24.83;17.35;;;9.90;99.90;;;;;;4957570;28;20046;-75
2022/10/23 04:20:13;;;;;;;30.42;20.10;;;9.90;99.90;;;;;;4957190;28;20482;-74
2022/10/23 04:22:39;;;;;;;21.55;15.95;;;10.00;99.90;;;;;;4958180;28;20050;-74
2022/10/23 04:25:05;;;;;;;26.75;18.58;;;9.90;99.90;;;;;;4941262;28;20043;-75
2022/10/23 04:27:30;;;;;;;28.13;20.40;;;9.90;99.90;;;;;;4973852;28;20039;-75
2022/10/23 04:29:56;;;;;;;25.00;18.65;;;9.90;99.90;;;;;;4973647;28;20041;-77
2022/10/23 04:32:22;;;;;;;28.33;20.60;;;10.00;99.90;;;;;;4962291;28;20039;-77
2022/10/23 04:34:47;;;;;;;26.50;19.27;;;10.00;99.90;;;;;;4963426;28;20129;-75
2022/10/23 04:37:13;;;;;;;26.23;18.42;;;10.10;99.90;;;;;;4959381;28;20047;-75
2022/10/23 04:39:39;;;;;;;28.58;19.45;;;10.10;99.90;;;;;;4956899;28;20070;-75
2022/10/23 04:42:04;;;;;;;26.20;18.27;;;10.20;99.90;;;;;;4961661;28;20044;-74
2022/10/23 04:44:30;;;;;;;28.45;19.30;;;10.20;99.90;;;;;;4957467;28;20287;-74
2022/10/23 04:46:56;;;;;;;25.88;19.05;;;10.10;99.90;;;;;;4942195;28;20054;-74
2022/10/23 04:49:21;;;;;;;25.98;19.05;;;10.20;99.90;;;;;;4950350;28;20035;-74
2022/10/23 04:51:47;;;;;;;25.63;17.80;;;10.10;99.90;;;;;;4941236;28;20137;-74
2022/10/23 04:54:13;;;;;;;23.92;17.98;;;10.10;99.90;;;;;;4949270;28;20047;-74
2022/10/23 04:56:38;;;;;;;26.88;19.17;;;10.20;99.90;;;;;;4948528;28;20046;-75
2022/10/23 04:59:04;;;;;;;27.77;19.05;;;10.20;99.90;;;;;;4947197;28;20109;-75
2022/10/23 05:01:30;;;;;;;33.85;21.40;;;10.20;99.90;;;;;;4939167;29;20126;-75
2022/10/23 05:03:55;;;;;;;28.00;20.30;;;10.20;99.90;;;;;;4952507;28;20162;-75
2022/10/23 05:06:21;;;;;;;25.80;18.00;;;10.10;99.90;;;;;;4957258;28;20112;-75
2022/10/23 05:08:47;;;;;;;31.75;21.67;;;10.10;99.90;;;;;;4943205;28;20039;-75
2022/10/23 05:11:13;;;;;;;36.25;23.20;;;10.00;99.90;;;;;;4952564;28;20079;-75
2022/10/23 05:13:38;;;;;;;22.08;16.70;;;10.00;99.90;;;;;;4964193;28;20045;-75
2022/10/23 05:16:04;;;;;;;20.13;14.57;;;10.00;99.90;;;;;;4941204;28;20049;-75
2022/10/23 05:18:38;;;;;;;25.45;17.73;;;9.90;99.90;;;;;;4947060;28;20041;-75
2022/10/23 05:21:13;;;;;;;24.38;16.73;;;9.90;99.90;;;;;;4957191;28;20494;-75
2022/10/23 05:23:41;;;;;;;62.65;28.27;;;9.90;99.90;;;;;;4956545;28;20060;-75
2022/10/23 05:26:07;;;;;;;71.40;34.15;;;9.80;99.90;;;;;;4956953;28;20159;-75
2022/10/23 05:28:33;;;;;;;31.92;22.05;;;9.80;99.90;;;;;;4955818;28;20125;-75
2022/10/23 05:31:01;;;;;;;28.83;21.33;;;9.70;99.90;;;;;;4973209;28;20057;-75
2022/10/23 05:33:28;;;;;;;53.92;27.77;;;9.70;99.90;;;;;;4955626;28;20546;-74
2022/10/23 05:35:54;;;;;;;29.67;20.00;;;9.70;99.90;;;;;;4956388;28;20047;-74
2022/10/23 05:38:20;;;;;;;48.58;28.92;;;9.70;99.90;;;;;;4972438;28;20031;-75
2022/10/23 05:40:46;;;;;;;67.75;34.00;;;9.70;99.90;;;;;;4956733;28;20069;-74
2022/10/23 05:43:11;;;;;;;43.90;27.67;;;9.70;99.90;;;;;;4971267;28;20047;-75
2022/10/23 05:45:37;;;;;;;36.45;24.38;;;9.70;99.90;;;;;;4968422;28;20513;-74
2022/10/23 05:48:03;;;;;;;47.75;27.63;;;9.70;99.90;;;;;;4955679;28;20057;-74
2022/10/23 05:50:29;;;;;;;63.28;33.92;;;9.70;99.90;;;;;;4956661;28;20124;-75
2022/10/23 05:52:54;;;;;;;49.55;30.15;;;9.60;99.90;;;;;;4956559;28;20038;-75
2022/10/23 05:55:20;;;;;;;39.92;24.75;;;9.60;99.90;;;;;;4940315;28;20039;-74
2022/10/23 05:57:46;;;;;;;23.77;18.83;;;9.60;99.90;;;;;;4940561;28;20078;-75
2022/10/23 06:00:12;;;;;;;25.40;18.25;;;9.60;99.90;;;;;;4929158;28;20054;-74
2022/10/23 06:02:37;;;;;;;25.10;17.90;;;9.60;99.90;;;;;;4971078;28;20173;-75
2022/10/23 06:05:03;;;;;;;26.88;19.70;;;9.60;99.90;;;;;;4970937;28;20118;-76
2022/10/23 06:07:29;;;;;;;24.98;18.85;;;9.60;99.90;;;;;;4953463;28;20043;-74
2022/10/23 06:09:55;;;;;;;32.97;23.05;;;9.60;99.90;;;;;;4954154;28;20032;-74
2022/10/23 06:12:21;;;;;;;31.92;22.33;;;9.60;99.90;;;;;;4960225;28;20494;-73
2022/10/23 06:14:47;;;;;;;34.40;23.35;;;9.60;99.90;;;;;;4944471;28;20038;-75
2022/10/23 06:17:13;;;;;;;36.25;23.13;;;9.60;99.90;;;;;;4957587;28;20130;-76
2022/10/23 06:19:39;;;;;;;36.33;23.15;;;9.70;99.90;;;;;;4956195;28;20042;-75
2022/10/23 06:22:05;;;;;;;33.03;22.27;;;9.80;99.90;;;;;;4958509;28;20130;-76
2022/10/23 06:24:31;;;;;;;28.48;21.17;;;9.90;99.90;;;;;;4956348;28;20039;-76
2022/10/23 06:26:57;;;;;;;30.08;22.23;;;9.90;99.90;;;;;;4975871;28;20119;-76
2022/10/23 06:29:22;;;;;;;33.30;22.98;;;10.00;99.90;;;;;;4968501;28;20043;-76
2022/10/23 06:31:48;;;;;;;30.20;21.08;;;10.00;99.90;;;;;;4946774;28;20035;-75
2022/10/23 06:34:14;;;;;;;27.77;20.45;;;10.00;99.90;;;;;;4975327;28;20043;-76
2022/10/23 06:36:41;;;;;;;30.27;20.33;;;10.00;99.90;;;;;;4969320;28;20046;-76
2022/10/23 06:39:08;;;;;;;30.60;20.90;;;10.00;99.90;;;;;;4959876;28;20046;-75
2022/10/23 06:41:34;;;;;;;27.35;19.67;;;10.00;99.90;;;;;;4949559;28;20054;-75
2022/10/23 06:44:00;;;;;;;30.23;20.83;;;10.10;99.90;;;;;;4943689;28;20031;-75
2022/10/23 06:46:28;;;;;;;30.13;20.27;;;10.30;99.90;;;;;;4959654;28;20047;-76
2022/10/23 06:48:54;;;;;;;37.20;23.48;;;10.20;99.90;;;;;;4957833;28;20051;-75
2022/10/23 06:51:21;;;;;;;37.05;23.80;;;10.20;99.90;;;;;;4951589;28;20042;-75
2022/10/23 06:53:47;;;;;;;34.75;23.35;;;10.10;99.90;;;;;;4942350;28;20045;-75
2022/10/23 06:56:12;;;;;;;35.72;24.40;;;10.10;99.90;;;;;;4957243;28;20035;-75
2022/10/23 06:58:39;;;;;;;36.28;24.25;;;10.20;99.90;;;;;;4960469;28;20061;-74
2022/10/23 07:01:08;;;;;;;37.50;25.17;;;10.20;99.90;;;;;;4958672;28;20050;-73
2022/10/23 07:03:35;;;;;;;35.70;24.42;;;10.20;99.90;;;;;;4958901;28;20054;-75
2022/10/23 07:06:05;;;;;;;40.63;25.73;;;10.20;99.90;;;;;;4957084;28;20035;-75
2022/10/23 07:08:31;;;;;;;37.65;25.20;;;10.20;99.90;;;;;;4956962;28;20189;-74
2022/10/23 07:11:01;;;;;;;34.00;23.52;;;10.30;99.90;;;;;;4955946;28;20038;-75
2022/10/23 07:13:26;;;;;;;37.38;25.77;;;10.20;99.90;;;;;;4951316;28;20043;-75
2022/10/23 07:15:52;;;;;;;37.88;26.52;;;10.30;99.90;;;;;;4957098;28;20482;-74
2022/10/23 07:18:18;;;;;;;40.40;26.70;;;10.30;99.90;;;;;;4957686;28;20696;-74
2022/10/23 07:20:47;;;;;;;36.33;24.05;;;10.30;99.90;;;;;;4957016;28;20047;-75
2022/10/23 07:23:14;;;;;;;35.90;23.08;;;10.30;99.90;;;;;;4957068;28;20098;-76
2022/10/23 07:25:40;;;;;;;34.28;24.52;;;10.30;99.90;;;;;;4941875;28;20504;-75
2022/10/23 07:28:06;;;;;;;32.58;22.10;;;10.40;99.90;;;;;;4957982;28;20039;-77
2022/10/23 07:30:31;;;;;;;42.15;26.92;;;10.40;99.90;;;;;;4939335;28;20159;-76
2022/10/23 07:32:57;;;;;;;34.20;22.88;;;10.40;99.90;;;;;;4941656;28;20042;-76
2022/10/23 07:35:23;;;;;;;32.42;22.98;;;10.50;99.90;;;;;;4924927;28;20050;-76
2022/10/23 07:37:49;;;;;;;32.03;22.98;;;10.60;99.90;;;;;;4963703;28;20122;-76
2022/10/23 07:40:16;;;;;;;31.90;22.27;;;10.60;99.90;;;;;;4957788;28;20042;-75
2022/10/23 07:42:41;;;;;;;31.67;23.50;;;10.60;99.90;;;;;;4955136;28;20098;-75
2022/10/23 07:45:07;;;;;;;39.78;26.27;;;10.70;99.90;;;;;;4954137;28;20055;-76
2022/10/23 07:47:33;;;;;;;32.15;21.60;;;10.70;99.90;;;;;;4970145;28;20106;-75
2022/10/23 07:49:59;;;;;;;34.45;22.90;;;10.70;99.90;;;;;;4952581;28;20125;-76
2022/10/23 07:52:26;;;;;;;29.30;22.67;;;10.70;99.90;;;;;;4939655;28;20074;-76
2022/10/23 07:54:51;;;;;;;32.75;22.13;;;10.80;99.90;;;;;;4953223;28;20483;-76
2022/10/23 07:57:17;;;;;;;27.58;20.33;;;10.80;99.90;;;;;;4937455;28;20033;-75
2022/10/23 07:59:43;;;;;;;30.92;20.10;;;10.80;99.90;;;;;;4933092;28;20046;-76
2022/10/23 08:02:11;;;;;;;28.25;19.27;;;10.90;99.90;;;;;;4942884;28;20047;-76
2022/10/23 08:04:37;;;;;;;24.98;18.00;;;10.90;99.90;;;;;;4970649;28;20117;-75
2022/10/23 08:07:03;;;;;;;27.90;17.50;;;11.00;99.90;;;;;;4940269;28;20181;-75
2022/10/23 08:09:28;;;;;;;27.13;18.33;;;11.10;99.90;;;;;;4957306;28;20034;-75
2022/10/23 08:11:54;;;;;;;26.33;17.13;;;11.20;99.90;;;;;;4955425;28;20043;-75
2022/10/23 08:14:20;;;;;;;26.50;17.13;;;11.30;99.90;;;;;;4956534;28;20039;-75
2022/10/23 08:16:45;;;;;;;28.23;19.15;;;11.30;99.90;;;;;;4941031;28;20167;-76
2022/10/23 08:19:11;;;;;;;24.13;17.63;;;11.40;99.90;;;;;;4954288;28;20449;-75
2022/10/23 08:21:37;;;;;;;27.33;16.75;;;11.40;99.90;;;;;;4957529;28;20046;-74
2022/10/23 08:24:03;;;;;;;24.23;16.52;;;11.50;99.90;;;;;;4941369;28;20494;-75
2022/10/23 08:26:29;;;;;;;22.35;15.95;;;11.60;99.90;;;;;;4956271;28;20038;-77
2022/10/23 08:28:57;;;;;;;26.27;15.73;;;11.70;99.90;;;;;;4955057;28;20572;-75
2022/10/23 08:31:23;;;;;;;23.13;15.30;;;11.80;99.90;;;;;;4937882;28;20040;-78
2022/10/23 08:33:49;;;;;;;21.48;15.00;;;11.80;99.90;;;;;;4955752;28;20047;-77
2022/10/23 08:36:25;;;;;;;24.85;15.20;;;11.80;99.90;;;;;;4941238;28;20043;-77
2022/10/23 08:38:53;;;;;;;21.38;14.52;;;11.90;99.90;;;;;;4953375;28;20544;-76
2022/10/23 08:41:35;;;;;;;24.15;14.93;;;12.00;99.90;;;;;;4940114;28;20042;-76
2022/10/23 08:44:13;;;;;;;25.73;16.77;;;12.00;99.90;;;;;;4955474;28;20093;-76
2022/10/23 08:46:45;;;;;;;20.92;14.73;;;12.10;99.90;;;;;;4972859;28;20090;-76
2022/10/23 08:49:19;;;;;;;22.40;14.00;;;12.20;99.90;;;;;;4954805;28;20271;-76
2022/10/23 08:51:48;;;;;;;22.35;13.70;;;12.30;99.90;;;;;;4971593;28;20454;-75
2022/10/23 08:54:17;;;;;;;20.27;14.07;;;12.30;99.90;;;;;;4962009;28;20112;-76
2022/10/23 08:56:48;;;;;;;18.27;13.15;;;12.40;99.90;;;;;;4961248;28;20042;-76
2022/10/23 08:59:38;;;;;;;20.20;12.45;;;12.50;99.90;;;;;;4953470;28;20038;-75
2022/10/23 09:02:21;;;;;;;15.98;11.07;;;12.60;99.90;;;;;;4949989;28;20043;-75
2022/10/23 09:04:51;;;;;;;17.10;11.52;;;12.70;99.90;;;;;;4962196;28;20038;-76
2022/10/23 09:07:38;;;;;;;16.00;10.75;;;12.80;99.90;;;;;;4949288;28;20125;-76
2022/10/23 09:10:15;;;;;;;17.13;10.95;;;12.80;99.90;;;;;;4971428;28;20039;-76
2022/10/23 09:12:41;;;;;;;16.20;10.40;;;12.90;99.90;;;;;;4956419;28;20142;-76
2022/10/23 09:15:34;;;;;;;16.17;10.25;;;12.90;99.90;;;;;;4952414;28;20081;-75
2022/10/23 09:18:06;;;;;;;18.05;10.90;;;13.00;99.90;;;;;;4886834;28;20056;-76
2022/10/23 09:20:34;;;;;;;18.88;11.13;;;13.10;99.90;;;;;;4904109;29;20043;-76
2022/10/23 09:23:15;;;;;;;20.85;11.27;;;13.10;99.90;;;;;;4917740;29;20043;-76
2022/10/23 09:25:42;;;;;;;14.02;10.20;;;13.20;99.90;;;;;;4947945;28;20039;-75
2022/10/23 09:28:23;;;;;;;18.17;10.45;;;13.30;99.90;;;;;;4931816;29;20129;-75
2022/10/23 09:30:49;;;;;;;15.95;10.10;;;13.30;99.90;;;;;;4949804;28;20043;-76
2022/10/23 09:33:27;;;;;;;15.45;9.05;;;13.40;99.90;;;;;;4912523;29;20086;-76
2022/10/23 09:36:03;;;;;;;15.73;10.23;;;13.50;99.90;;;;;;4930880;29;20090;-76
2022/10/23 09:38:36;;;;;;;16.77;10.75;;;13.50;99.90;;;;;;4930177;29;20648;-75
2022/10/23 09:41:06;;;;;;;16.73;9.57;;;13.60;99.90;;;;;;4954726;28;20051;-76
2022/10/23 09:43:32;;;;;;;16.73;10.13;;;13.60;99.90;;;;;;4930774;29;20039;-76
2022/10/23 09:46:01;;;;;;;17.52;9.30;;;13.70;99.90;;;;;;4903777;29;20118;-75
2022/10/23 09:48:27;;;;;;;16.25;9.77;;;13.70;99.90;;;;;;4947863;28;20507;-75
2022/10/23 09:50:54;;;;;;;13.80;9.50;;;13.80;99.90;;;;;;4927979;29;20039;-76
2022/10/23 09:53:45;;;;;;;14.23;9.38;;;13.90;99.90;;;;;;4947470;29;20474;-76
2022/10/23 09:56:32;;;;;;;15.43;10.02;;;13.90;99.90;;;;;;4950841;28;20046;-76
2022/10/23 09:59:01;;;;;;;18.88;10.18;;;14.00;99.90;;;;;;4950344;28;20057;-75
2022/10/23 10:01:29;;;;;;;13.55;9.55;;;14.00;99.90;;;;;;4933636;29;20051;-76
2022/10/23 10:03:56;;;;;;;16.17;9.43;;;14.10;99.90;;;;;;4949363;28;20039;-75
2022/10/23 10:06:30;;;;;;;14.77;9.00;;;14.20;99.90;;;;;;4932792;29;20039;-75
2022/10/23 10:09:10;;;;;;;15.25;8.88;;;14.30;99.90;;;;;;4950452;28;20126;-75
2022/10/23 10:11:51;;;;;;;13.70;7.88;;;14.40;99.90;;;;;;4932399;29;20044;-76
2022/10/23 10:14:42;;;;;;;14.00;8.75;;;14.40;99.90;;;;;;4950746;28;20074;-74
2022/10/23 10:17:45;;;;;;;14.40;8.20;;;14.50;99.90;;;;;;4950388;29;20061;-74
2022/10/23 10:20:13;;;;;;;16.02;8.82;;;14.60;99.90;;;;;;4931439;29;20051;-74
2022/10/23 10:22:45;;;;;;;11.48;7.80;;;14.70;99.90;;;;;;4931452;29;20051;-74
2022/10/23 10:25:38;;;;;;;13.43;7.28;;;14.80;99.90;;;;;;4932104;29;20042;-74
2022/10/23 10:28:49;;;;;;;13.20;7.55;;;14.80;99.90;;;;;;4949887;28;20050;-74
2022/10/23 10:31:24;;;;;;;14.65;8.00;;;14.80;99.90;;;;;;4944582;28;20045;-75
2022/10/23 10:34:05;;;;;;;12.77;6.95;;;14.90;99.90;;;;;;4946266;28;20042;-74
2022/10/23 10:36:55;;;;;;;13.40;7.10;;;15.00;99.90;;;;;;4930993;29;20047;-75
2022/10/23 10:39:33;;;;;;;14.93;6.50;;;15.10;99.90;;;;;;4949301;29;20119;-75
2022/10/23 10:42:28;;;;;;;12.05;6.15;;;15.20;99.90;;;;;;4934306;29;20530;-75
2022/10/23 10:45:15;;;;;;;14.07;6.63;;;15.20;99.90;;;;;;4925392;29;20485;-74
2022/10/23 10:48:02;;;;;;;11.77;6.80;;;15.20;99.90;;;;;;4913827;29;20056;-75
2022/10/23 10:50:49;;;;;;;11.57;6.22;;;15.20;99.90;;;;;;4945250;28;20038;-75
2022/10/23 10:53:27;;;;;;;12.55;6.97;;;15.30;99.90;;;;;;4929137;29;20071;-75
2022/10/23 10:55:56;;;;;;;12.05;6.13;;;15.30;99.90;;;;;;4930819;28;20483;-75
2022/10/23 10:58:46;;;;;;;10.65;6.60;;;15.40;99.90;;;;;;4936481;28;20104;-75
2022/10/23 11:01:33;;;;;;;13.30;6.13;;;15.40;99.90;;;;;;4934437;29;20264;-75
2022/10/23 11:04:30;;;;;;;11.60;6.30;;;15.30;99.90;;;;;;4932232;29;20583;-75
2022/10/23 11:06:58;;;;;;;15.20;5.85;;;15.50;99.90;;;;;;4937233;29;20046;-75
2022/10/23 11:09:29;;;;;;;11.02;6.22;;;15.40;99.90;;;;;;4933448;29;20101;-75
2022/10/23 11:11:55;;;;;;;12.10;6.00;;;15.40;99.90;;;;;;4937052;29;20490;-75
2022/10/23 11:14:33;;;;;;;11.90;5.80;;;15.40;99.90;;;;;;4931079;29;20171;-75
2022/10/23 11:17:20;;;;;;;12.05;5.30;;;15.40;99.90;;;;;;4934520;29;20125;-75
2022/10/23 11:20:04;;;;;;;11.48;5.20;;;15.50;99.90;;;;;;4954799;28;20039;-75
2022/10/23 11:22:46;;;;;;;11.88;6.07;;;15.50;99.90;;;;;;4951659;28;20066;-75
2022/10/23 11:25:48;;;;;;;10.65;5.75;;;15.40;99.90;;;;;;4918815;29;20043;-75
2022/10/23 11:28:46;;;;;;;13.57;6.10;;;15.40;99.90;;;;;;4953779;28;20519;-75
2022/10/23 11:31:28;;;;;;;10.30;5.45;;;15.30;99.90;;;;;;4923344;29;20063;-75
2022/10/23 11:34:31;;;;;;;12.70;5.72;;;15.40;99.90;;;;;;4929997;29;20039;-75
2022/10/23 11:37:00;;;;;;;14.57;6.18;;;15.40;99.90;;;;;;4953435;28;20043;-75
2022/10/23 11:39:31;;;;;;;13.38;5.88;;;15.40;99.90;;;;;;4933307;29;20517;-75
2022/10/23 11:42:10;;;;;;;10.80;5.93;;;15.30;99.90;;;;;;4920934;29;20043;-74
2022/10/23 11:44:45;;;;;;;14.43;6.53;;;15.30;99.90;;;;;;4933478;28;20135;-75
2022/10/23 11:47:30;;;;;;;10.23;6.00;;;15.30;99.90;;;;;;4951995;28;20054;-75
2022/10/23 11:50:07;;;;;;;14.85;6.20;;;15.40;99.90;;;;;;4945610;28;20521;-75
2022/10/23 11:52:35;;;;;;;10.55;5.50;;;15.50;99.90;;;;;;4929463;29;20043;-75
2022/10/23 11:55:23;;;;;;;9.93;5.70;;;15.50;99.90;;;;;;4954945;28;20070;-75
2022/10/23 11:58:03;;;;;;;11.15;5.05;;;15.60;99.90;;;;;;4936346;29;20569;-75
2022/10/23 12:00:32;;;;;;;11.38;5.65;;;15.60;99.90;;;;;;4934387;29;20043;-75
2022/10/23 12:02:59;;;;;;;9.82;5.35;;;15.70;99.90;;;;;;4949761;28;20475;-75
2022/10/23 12:05:37;;;;;;;13.32;5.68;;;15.70;99.90;;;;;;4955446;28;20039;-75
2022/10/23 12:08:06;;;;;;;13.82;5.47;;;15.70;99.90;;;;;;4935624;29;20047;-75
2022/10/23 12:10:44;;;;;;;9.80;5.38;;;15.80;99.90;;;;;;4935971;29;20102;-75
2022/10/23 12:13:36;;;;;;;11.20;5.50;;;15.70;99.90;;;;;;4954432;28;20126;-75
2022/10/23 12:16:03;;;;;;;9.98;5.20;;;15.80;99.90;;;;;;4954360;28;20098;-75
2022/10/23 12:18:29;;;;;;;8.25;4.70;;;15.80;99.90;;;;;;4934952;28;20050;-75
2022/10/23 12:21:03;;;;;;;12.10;4.80;;;15.90;99.90;;;;;;4935185;29;20406;-75
2022/10/23 12:23:34;;;;;;;10.00;4.75;;;16.00;99.90;;;;;;4934312;29;20043;-75
2022/10/23 12:26:12;;;;;;;10.23;4.70;;;16.00;99.90;;;;;;4930524;29;20431;-75
2022/10/23 12:28:50;;;;;;;10.43;4.95;;;16.00;99.90;;;;;;4935174;29;20509;-75
2022/10/23 12:31:30;;;;;;;10.35;4.68;;;16.00;99.90;;;;;;4959121;28;20043;-75
2022/10/23 12:34:18;;;;;;;8.55;4.35;;;16.00;99.90;;;;;;4930330;29;20035;-75
2022/10/23 12:37:03;;;;;;;9.80;4.43;;;16.00;99.90;;;;;;4930449;29;20043;-75
2022/10/23 12:39:36;;;;;;;9.50;4.20;;;16.10;99.90;;;;;;4929411;29;20051;-75
2022/10/23 12:42:03;;;;;;;10.43;4.30;;;16.10;99.90;;;;;;4929611;29;20471;-75
2022/10/23 12:44:29;;;;;;;9.18;4.20;;;16.10;99.90;;;;;;4932463;29;20483;-75
2022/10/23 12:46:58;;;;;;;9.38;4.25;;;16.10;99.90;;;;;;4933831;29;20058;-75
2022/10/23 12:49:26;;;;;;;8.73;3.72;;;16.20;99.90;;;;;;4930184;29;20150;-75
2022/10/23 12:52:04;;;;;;;8.27;4.18;;;16.20;99.90;;;;;;4931932;29;20039;-75